NCAR-RAP Real-Time Weather Data

Output produced by METARs form (24 April 2018  22:55 UTC)
found at http://weather.rap.ucar.edu/surface/
 
Conditions at: KIND observed 24 April 2018  21:54 UTC
Temperature: 13.3°C (56°F)
Dewpoint: 11.7°C (53°F) [RH = 90%]
Pressure (altimeter): 29.93 inches Hg (1013.6 mb)
[Sea-level pressure: 1013.3 mb]
Winds: from the NNE (20 degrees) at 8 MPH (7 knots; 3.6 m/s)
Visibility: 10 or more miles (16+ km)
Ceiling: 2100 feet AGL
Clouds: scattered clouds at 1100 feet AGL
overcast cloud deck at 2100 feet AGL
Present Weather: no significant weather observed at this time
KIND 242154Z 02007KT 10SM SCT011 OVC021 13/12 A2993 RMK AO2 RAE14B32E51 SLP133 P0000 T01330117